Time;durP1;ratioP1;P1;durP2;ratioP2;P2;SDS_P1;SDS_P2;PMS_P1;PMS_P2;Temp;Humidity;BMP_temperature;BMP_pressure;BME280_temperature;BME280_humidity;BME280_pressure;Samples;Min_cycle;Max_cycle;Signal;HPM_P1;HPM_P2
2021/07/10 00:00:18;;;;;;;8.23;5.80;;;18.20;80.30;;;;;;2063528;28;20101;-84
2021/07/10 00:01:18;;;;;;;8.13;5.90;;;18.20;80.30;;;;;;2057241;28;20087;-84
2021/07/10 00:02:19;;;;;;;7.55;6.00;;;18.20;80.30;;;;;;2065077;28;20102;-84
2021/07/10 00:03:20;;;;;;;8.55;6.32;;;18.20;80.40;;;;;;2080182;28;20032;-84
2021/07/10 00:04:21;;;;;;;9.07;6.20;;;18.20;80.40;;;;;;2064417;28;20026;-84
2021/07/10 00:05:22;;;;;;;8.20;5.88;;;18.20;80.50;;;;;;2057619;28;20129;-83
2021/07/10 00:06:23;;;;;;;7.95;5.78;;;18.20;80.50;;;;;;2072853;28;20535;-84
2021/07/10 00:07:23;;;;;;;8.80;5.32;;;18.20;80.50;;;;;;2071633;28;20034;-83
2021/07/10 00:08:24;;;;;;;8.10;6.07;;;18.10;80.50;;;;;;2065186;28;20134;-84
2021/07/10 00:09:26;;;;;;;8.75;6.10;;;18.10;80.60;;;;;;2053374;28;20043;-84
2021/07/10 00:10:27;;;;;;;7.85;5.40;;;18.20;80.60;;;;;;2057445;28;20125;-84
2021/07/10 00:11:28;;;;;;;8.25;6.00;;;18.10;80.60;;;;;;2079189;28;20128;-84
2021/07/10 00:12:28;;;;;;;8.73;5.97;;;18.20;80.60;;;;;;2066936;28;20489;-84
2021/07/10 00:13:29;;;;;;;7.53;5.88;;;18.10;80.60;;;;;;2080981;28;20557;-84
2021/07/10 00:14:30;;;;;;;8.05;5.50;;;18.20;81.20;;;;;;2067890;28;20061;-83
2021/07/10 00:15:30;;;;;;;8.93;6.32;;;18.20;80.60;;;;;;2047717;28;20032;-84
2021/07/10 00:16:31;;;;;;;7.82;5.97;;;18.20;81.20;;;;;;2049262;28;20039;-83
2021/07/10 00:17:32;;;;;;;8.70;5.95;;;18.20;80.60;;;;;;2057782;28;20027;-83
2021/07/10 00:18:33;;;;;;;7.82;5.85;;;18.20;80.60;;;;;;2065278;28;20113;-84
2021/07/10 00:19:34;;;;;;;9.75;6.00;;;18.20;80.60;;;;;;2075906;28;20077;-84
2021/07/10 00:20:34;;;;;;;7.47;5.60;;;18.20;81.00;;;;;;2072904;28;20026;-84
2021/07/10 00:21:35;;;;;;;8.35;6.00;;;18.20;80.70;;;;;;2065837;28;20027;-83
2021/07/10 00:22:37;;;;;;;8.55;5.97;;;18.10;80.70;;;;;;2055430;28;20449;-83
2021/07/10 00:23:38;;;;;;;8.27;6.18;;;18.10;80.70;;;;;;2064955;28;20026;-84
2021/07/10 00:24:38;;;;;;;8.07;5.63;;;18.10;80.80;;;;;;2067179;28;20034;-84
2021/07/10 00:25:39;;;;;;;7.60;5.43;;;18.10;80.80;;;;;;2064680;28;20022;-84
2021/07/10 00:26:40;;;;;;;7.63;5.40;;;18.10;80.90;;;;;;2079134;28;20041;-84
2021/07/10 00:27:42;;;;;;;10.52;5.80;;;18.10;81.00;;;;;;2074092;28;20515;-84
2021/07/10 00:28:43;;;;;;;8.30;6.25;;;18.10;81.60;;;;;;2068417;28;20034;-84
2021/07/10 00:29:43;;;;;;;8.15;6.40;;;18.10;81.70;;;;;;2066464;28;20022;-84
2021/07/10 00:30:44;;;;;;;9.27;6.30;;;18.10;81.10;;;;;;2052871;28;20463;-84
2021/07/10 00:31:45;;;;;;;9.00;6.20;;;18.10;81.10;;;;;;2058006;28;20031;-84
2021/07/10 00:32:46;;;;;;;8.05;5.72;;;18.10;81.10;;;;;;2075458;28;20120;-84
2021/07/10 00:33:47;;;;;;;7.80;5.47;;;18.10;81.10;;;;;;2081437;28;20080;-83
2021/07/10 00:34:47;;;;;;;8.70;6.20;;;18.00;81.10;;;;;;2081781;28;20132;-84
2021/07/10 00:35:48;;;;;;;9.65;6.18;;;18.10;81.20;;;;;;2072848;28;20587;-83
2021/07/10 00:36:48;;;;;;;8.75;6.35;;;18.00;81.10;;;;;;2058017;28;20481;-84
2021/07/10 00:37:49;;;;;;;9.43;6.20;;;18.00;81.10;;;;;;2065772;28;20120;-84
2021/07/10 00:38:50;;;;;;;7.88;5.93;;;18.00;81.20;;;;;;2066152;28;20023;-84
2021/07/10 00:39:51;;;;;;;9.40;6.00;;;18.00;81.20;;;;;;2069955;28;20034;-84
2021/07/10 00:40:51;;;;;;;8.45;6.03;;;18.00;81.30;;;;;;2064173;28;20639;-84
2021/07/10 00:41:52;;;;;;;8.95;6.15;;;18.00;81.30;;;;;;2047288;29;20071;-84
2021/07/10 00:42:53;;;;;;;7.93;5.85;;;17.90;81.30;;;;;;2050011;29;20027;-84
2021/07/10 00:43:53;;;;;;;8.02;5.95;;;17.90;81.30;;;;;;2042871;29;20032;-84
2021/07/10 00:44:54;;;;;;;8.98;6.38;;;18.00;81.40;;;;;;2049435;28;20031;-84
2021/07/10 00:45:55;;;;;;;8.60;6.32;;;18.00;81.40;;;;;;2043399;29;20074;-84
2021/07/10 00:46:55;;;;;;;9.02;6.43;;;18.00;81.40;;;;;;2054658;28;20079;-84
2021/07/10 00:47:56;;;;;;;8.32;6.30;;;17.90;81.40;;;;;;2047610;29;20413;-84
2021/07/10 00:48:57;;;;;;;8.30;6.45;;;18.00;81.40;;;;;;2051155;28;20445;-84
2021/07/10 00:49:58;;;;;;;8.65;6.38;;;17.90;81.40;;;;;;2052256;28;20042;-84
2021/07/10 00:50:58;;;;;;;10.00;6.68;;;17.90;81.50;;;;;;2058206;28;20031;-84
2021/07/10 00:51:59;;;;;;;9.88;6.57;;;17.90;81.50;;;;;;2064604;28;20073;-84
2021/07/10 00:53:00;;;;;;;8.80;6.50;;;18.00;81.60;;;;;;2059858;28;20400;-84
2021/07/10 00:54:00;;;;;;;8.85;6.20;;;17.90;82.10;;;;;;2050914;28;20684;-83
2021/07/10 00:55:02;;;;;;;9.82;6.72;;;18.00;81.60;;;;;;2065818;28;20405;-84
2021/07/10 00:56:03;;;;;;;9.23;6.10;;;17.90;81.60;;;;;;2067229;28;20030;-84
2021/07/10 00:57:06;;;;;;;9.20;6.40;;;17.90;81.60;;;;;;2065329;28;20034;-84
2021/07/10 00:58:09;;;;;;;9.32;6.63;;;18.00;81.70;;;;;;2071490;28;20084;-84
2021/07/10 00:59:12;;;;;;;9.35;6.53;;;18.00;81.60;;;;;;2075553;28;20022;-84
2021/07/10 01:00:16;;;;;;;8.68;6.63;;;18.00;81.60;;;;;;2066297;28;20027;-83
2021/07/10 01:01:17;;;;;;;9.55;7.10;;;18.00;81.70;;;;;;2070939;28;20034;-83
2021/07/10 01:02:17;;;;;;;8.02;6.32;;;18.00;82.20;;;;;;2069076;28;20122;-84
2021/07/10 01:03:18;;;;;;;8.07;6.10;;;18.00;81.50;;;;;;2057758;28;20512;-84
2021/07/10 01:04:20;;;;;;;8.75;6.45;;;18.00;81.50;;;;;;2063845;28;20118;-84
2021/07/10 01:05:25;;;;;;;8.68;6.47;;;18.10;81.50;;;;;;2065927;28;20034;-84
2021/07/10 01:06:27;;;;;;;8.48;5.97;;;18.00;81.50;;;;;;2074265;28;20022;-84
2021/07/10 01:07:27;;;;;;;10.13;6.72;;;18.10;81.50;;;;;;2068418;28;20128;-83
2021/07/10 01:08:28;;;;;;;9.88;6.45;;;18.10;81.50;;;;;;2065229;28;20034;-84
2021/07/10 01:09:31;;;;;;;10.32;6.82;;;18.10;81.50;;;;;;2054533;28;20114;-83
2021/07/10 01:10:31;;;;;;;9.13;6.60;;;18.10;81.50;;;;;;2064421;28;20069;-83
2021/07/10 01:11:32;;;;;;;10.13;6.30;;;18.10;81.50;;;;;;2063073;28;20022;-84
2021/07/10 01:12:34;;;;;;;8.95;5.97;;;18.20;81.60;;;;;;2054028;28;20030;-84
2021/07/10 01:13:35;;;;;;;7.78;6.13;;;18.10;81.50;;;;;;2058029;28;20025;-84
2021/07/10 01:14:36;;;;;;;8.18;5.95;;;18.10;81.50;;;;;;2055768;28;20034;-83
2021/07/10 01:15:37;;;;;;;8.02;6.18;;;18.10;81.60;;;;;;2062645;28;20035;-84
2021/07/10 01:16:37;;;;;;;8.38;5.68;;;18.10;81.60;;;;;;2052708;28;20043;-84
2021/07/10 01:17:38;;;;;;;8.90;5.90;;;18.10;81.70;;;;;;2041885;28;20055;-84
2021/07/10 01:18:39;;;;;;;8.30;5.82;;;18.10;81.80;;;;;;2049623;29;20028;-84
2021/07/10 01:19:39;;;;;;;7.90;5.78;;;18.10;81.80;;;;;;2056486;28;20540;-84
2021/07/10 01:20:51;;;;;;;7.57;5.68;;;18.10;81.80;;;;;;2054820;28;20035;-84
2021/07/10 01:21:52;;;;;;;8.48;5.93;;;18.10;81.80;;;;;;2058576;28;20118;-83
2021/07/10 01:22:54;;;;;;;8.13;5.65;;;18.20;81.80;;;;;;2056918;28;20041;-84
2021/07/10 01:23:54;;;;;;;7.90;5.75;;;18.20;81.80;;;;;;2064024;28;20018;-84
2021/07/10 01:24:55;;;;;;;8.20;5.72;;;18.20;81.70;;;;;;2047191;28;20070;-84
2021/07/10 01:25:56;;;;;;;7.57;5.93;;;18.20;81.70;;;;;;2062682;28;20468;-84
2021/07/10 01:26:56;;;;;;;8.43;5.60;;;18.20;81.60;;;;;;2067130;28;20030;-84
2021/07/10 01:27:57;;;;;;;7.07;5.68;;;18.20;81.60;;;;;;2073730;28;20065;-84
2021/07/10 01:28:58;;;;;;;7.78;5.68;;;18.20;81.60;;;;;;2065751;28;20030;-84
2021/07/10 01:30:03;;;;;;;7.90;5.75;;;18.20;81.60;;;;;;2056798;28;20402;-84
2021/07/10 01:31:04;;;;;;;7.57;5.55;;;18.30;81.60;;;;;;2057336;28;20090;-84
2021/07/10 01:32:05;;;;;;;7.75;5.65;;;18.30;81.60;;;;;;2073873;28;20088;-85
2021/07/10 01:33:07;;;;;;;9.07;6.00;;;18.30;81.60;;;;;;2064729;28;20026;-84
2021/07/10 01:34:08;;;;;;;9.57;5.40;;;18.30;81.50;;;;;;2054246;28;20066;-84
2021/07/10 01:35:10;;;;;;;7.82;5.57;;;18.30;81.50;;;;;;2056221;28;20055;-84
2021/07/10 01:36:10;;;;;;;7.93;5.65;;;18.30;81.50;;;;;;2071808;28;20081;-84
2021/07/10 01:37:12;;;;;;;8.02;5.75;;;18.30;81.50;;;;;;2080791;28;20022;-84
2021/07/10 01:38:14;;;;;;;8.38;5.82;;;18.30;81.50;;;;;;2082886;28;20503;-84
2021/07/10 01:39:14;;;;;;;7.80;5.65;;;18.20;81.50;;;;;;2073393;28;20457;-84
2021/07/10 01:40:17;;;;;;;8.30;5.90;;;18.30;81.60;;;;;;2079564;28;20142;-84
2021/07/10 01:41:18;;;;;;;7.55;5.20;;;18.30;81.60;;;;;;2079644;28;20072;-83
2021/07/10 01:42:19;;;;;;;6.90;5.47;;;18.20;81.60;;;;;;2057548;28;20026;-83
2021/07/10 01:43:19;;;;;;;8.15;5.53;;;18.20;81.60;;;;;;2065371;28;20034;-83
2021/07/10 01:44:21;;;;;;;8.18;6.05;;;18.20;81.70;;;;;;2071540;28;20034;-83
2021/07/10 01:45:22;;;;;;;8.02;5.88;;;18.20;81.70;;;;;;2061318;28;20454;-83
2021/07/10 01:46:23;;;;;;;7.88;5.43;;;18.20;81.80;;;;;;2072264;28;20034;-84
2021/07/10 01:47:23;;;;;;;8.43;6.10;;;18.20;81.80;;;;;;2065444;28;20034;-84
2021/07/10 01:48:24;;;;;;;7.85;5.75;;;18.20;81.80;;;;;;2073183;28;20030;-84
2021/07/10 01:49:25;;;;;;;8.13;5.97;;;18.20;81.90;;;;;;2070981;28;20026;-83
2021/07/10 01:50:25;;;;;;;8.52;5.82;;;18.20;81.90;;;;;;2073513;28;20037;-84
2021/07/10 01:51:26;;;;;;;8.27;6.13;;;18.20;82.00;;;;;;2056771;28;20133;-84
2021/07/10 01:52:27;;;;;;;8.82;6.20;;;18.10;82.00;;;;;;2057445;28;20516;-84
2021/07/10 01:53:27;;;;;;;7.68;5.40;;;18.10;82.00;;;;;;2057117;28;20034;-84
2021/07/10 01:54:28;;;;;;;8.02;5.50;;;18.10;82.10;;;;;;2073830;28;20037;-84
2021/07/10 01:55:29;;;;;;;9.38;6.03;;;18.10;82.10;;;;;;2076856;28;20022;-84
2021/07/10 01:56:30;;;;;;;7.78;5.47;;;18.10;82.20;;;;;;2065225;28;20064;-84
2021/07/10 01:57:30;;;;;;;8.20;5.50;;;18.10;82.30;;;;;;2061458;28;20481;-84
2021/07/10 01:58:31;;;;;;;7.90;5.82;;;18.10;82.30;;;;;;2073852;28;20022;-84
2021/07/10 01:59:32;;;;;;;7.93;6.05;;;18.00;82.40;;;;;;2090079;28;20089;-84
2021/07/10 02:00:37;;;;;;;9.27;6.00;;;18.00;82.40;;;;;;2065864;28;20183;-83
2021/07/10 02:01:38;;;;;;;9.10;6.07;;;18.00;82.50;;;;;;2059580;28;20023;-83
2021/07/10 02:02:40;;;;;;;8.65;5.82;;;18.00;82.50;;;;;;2079516;28;20056;-83
2021/07/10 02:03:40;;;;;;;8.77;6.32;;;17.90;82.50;;;;;;2073457;28;20076;-84
2021/07/10 02:04:50;;;;;;;9.13;6.30;;;17.90;82.60;;;;;;2057575;28;20030;-84
2021/07/10 02:05:52;;;;;;;8.68;5.97;;;17.90;82.60;;;;;;2080370;28;20017;-84
2021/07/10 02:06:53;;;;;;;8.10;6.47;;;17.90;82.50;;;;;;2088055;28;20037;-84
2021/07/10 02:07:56;;;;;;;10.13;6.45;;;17.90;83.20;;;;;;2073396;28;20069;-84
2021/07/10 02:08:56;;;;;;;8.70;6.22;;;17.90;82.50;;;;;;2066001;28;20054;-84
2021/07/10 02:09:57;;;;;;;11.38;6.50;;;18.00;82.60;;;;;;2072126;28;20041;-83
2021/07/10 02:10:58;;;;;;;9.18;6.20;;;17.90;82.50;;;;;;2065366;28;20027;-84
2021/07/10 02:11:58;;;;;;;9.88;6.50;;;18.00;82.60;;;;;;2073375;28;20030;-83
2021/07/10 02:13:05;;;;;;;9.05;6.50;;;18.00;82.60;;;;;;2065035;28;20172;-83
2021/07/10 02:14:05;;;;;;;8.93;6.43;;;17.90;82.60;;;;;;2067489;28;20026;-84
2021/07/10 02:15:07;;;;;;;9.52;6.63;;;18.00;82.70;;;;;;2081816;28;20029;-84
2021/07/10 02:16:08;;;;;;;8.95;6.50;;;17.90;82.70;;;;;;2072792;28;20419;-84
2021/07/10 02:17:09;;;;;;;8.75;6.65;;;17.90;83.40;;;;;;2060269;28;20057;-84
2021/07/10 02:18:10;;;;;;;9.00;6.28;;;17.90;83.50;;;;;;2064423;28;20101;-84
2021/07/10 02:19:11;;;;;;;8.30;5.82;;;17.90;83.00;;;;;;2073430;28;20029;-84
2021/07/10 02:20:19;;;;;;;8.93;6.60;;;17.90;83.00;;;;;;2065894;28;20053;-83
2021/07/10 02:21:19;;;;;;;9.35;6.50;;;17.80;83.10;;;;;;2070235;28;20031;-85
2021/07/10 02:22:20;;;;;;;9.55;6.65;;;17.90;83.10;;;;;;2065327;28;20481;-83
2021/07/10 02:23:21;;;;;;;10.48;6.75;;;17.80;83.00;;;;;;2078665;28;20079;-83
2021/07/10 02:24:21;;;;;;;9.00;6.50;;;17.80;83.10;;;;;;2078547;28;20029;-83
2021/07/10 02:25:23;;;;;;;9.70;6.70;;;17.80;83.20;;;;;;2065292;28;20080;-83
2021/07/10 02:26:24;;;;;;;9.38;6.72;;;17.80;83.20;;;;;;2076075;28;20028;-84
2021/07/10 02:27:26;;;;;;;9.38;6.88;;;17.70;83.30;;;;;;2082808;28;20053;-83
2021/07/10 02:28:27;;;;;;;10.00;6.80;;;17.70;83.40;;;;;;2068843;28;20034;-83
2021/07/10 02:29:28;;;;;;;8.88;6.38;;;17.70;83.50;;;;;;2055384;28;20103;-83
2021/07/10 02:30:32;;;;;;;8.30;6.57;;;17.70;83.50;;;;;;2070050;28;20090;-83
2021/07/10 02:31:35;;;;;;;9.70;7.05;;;17.60;83.60;;;;;;2081635;28;20006;-85
2021/07/10 02:32:37;;;;;;;9.00;6.80;;;17.60;83.60;;;;;;2073767;28;20058;-84
2021/07/10 02:33:39;;;;;;;9.25;6.53;;;17.60;83.70;;;;;;2080497;28;20021;-83
2021/07/10 02:34:40;;;;;;;8.30;6.43;;;17.60;83.70;;;;;;2082366;28;20097;-84
2021/07/10 02:35:40;;;;;;;10.40;6.65;;;17.60;83.70;;;;;;2079675;28;20026;-83
2021/07/10 02:36:41;;;;;;;10.85;6.70;;;17.60;83.80;;;;;;2064871;28;20035;-83
2021/07/10 02:37:42;;;;;;;10.50;7.03;;;17.60;83.80;;;;;;2058209;28;20043;-84
2021/07/10 02:38:43;;;;;;;9.50;6.97;;;17.60;83.90;;;;;;2068854;28;20025;-83
2021/07/10 02:39:44;;;;;;;8.13;6.38;;;17.60;83.90;;;;;;2082571;28;20037;-83
2021/07/10 02:40:44;;;;;;;9.50;7.03;;;17.60;83.90;;;;;;2075925;28;20117;-83
2021/07/10 02:41:45;;;;;;;8.85;6.65;;;17.50;83.90;;;;;;2063349;28;20038;-83
2021/07/10 02:42:47;;;;;;;11.05;7.25;;;17.60;83.90;;;;;;2057327;28;20035;-83
2021/07/10 02:43:48;;;;;;;9.85;6.95;;;17.50;83.90;;;;;;2073695;28;20069;-85
2021/07/10 02:44:49;;;;;;;9.40;6.47;;;17.50;83.90;;;;;;2074027;28;20594;-84
2021/07/10 02:45:50;;;;;;;10.55;6.80;;;17.50;84.00;;;;;;2083049;28;20080;-83
2021/07/10 02:46:54;;;;;;;9.18;6.75;;;17.50;84.10;;;;;;2070805;28;20026;-84
2021/07/10 02:47:55;;;;;;;9.27;6.55;;;17.40;84.10;;;;;;2069247;28;20044;-84
2021/07/10 02:48:58;;;;;;;9.52;6.80;;;17.50;84.30;;;;;;2076210;28;20172;-84
2021/07/10 02:49:59;;;;;;;9.82;6.90;;;17.40;84.20;;;;;;2065903;28;20033;-84
2021/07/10 02:51:00;;;;;;;8.70;6.72;;;17.40;84.20;;;;;;2064852;28;20070;-84
2021/07/10 02:52:00;;;;;;;9.35;6.85;;;17.40;84.20;;;;;;2056448;28;20031;-83
2021/07/10 02:53:01;;;;;;;10.52;7.35;;;17.40;84.20;;;;;;2065827;28;20037;-84
2021/07/10 02:54:02;;;;;;;8.95;6.97;;;17.30;84.20;;;;;;2073508;28;20030;-83
2021/07/10 02:55:04;;;;;;;9.70;7.15;;;17.40;84.30;;;;;;2057512;28;20590;-84
2021/07/10 02:56:05;;;;;;;8.85;6.75;;;17.30;84.40;;;;;;2064865;28;20033;-83
2021/07/10 02:57:05;;;;;;;9.65;7.07;;;17.30;84.40;;;;;;2071156;28;20487;-83
2021/07/10 02:58:06;;;;;;;11.00;7.07;;;17.30;84.50;;;;;;2073440;28;20091;-83
2021/07/10 02:59:07;;;;;;;10.68;7.50;;;17.30;84.50;;;;;;2062737;28;20081;-83
2021/07/10 03:00:14;;;;;;;10.10;6.97;;;17.30;84.50;;;;;;2073520;28;20061;-83
2021/07/10 03:01:15;;;;;;;10.75;7.28;;;17.30;84.60;;;;;;2089793;28;20028;-86
2021/07/10 03:02:15;;;;;;;10.48;7.28;;;17.30;84.60;;;;;;2089618;28;20025;-83
2021/07/10 03:03:16;;;;;;;11.25;7.63;;;17.20;84.50;;;;;;2082058;28;20030;-83
2021/07/10 03:04:16;;;;;;;10.60;7.13;;;17.30;84.70;;;;;;2066557;28;20787;-84
2021/07/10 03:05:17;;;;;;;11.05;7.97;;;17.20;84.70;;;;;;2079324;28;20038;-82
2021/07/10 03:06:18;;;;;;;10.05;7.78;;;17.20;84.80;;;;;;2072162;28;20046;-84
2021/07/10 03:07:19;;;;;;;10.02;7.38;;;17.20;84.80;;;;;;2058683;28;20039;-84
2021/07/10 03:08:21;;;;;;;9.65;7.20;;;17.10;84.80;;;;;;2057232;28;20425;-83
2021/07/10 03:09:22;;;;;;;10.07;7.47;;;17.20;84.90;;;;;;2062430;28;20031;-84
2021/07/10 03:10:26;;;;;;;10.90;8.15;;;17.10;85.00;;;;;;2073291;28;20452;-84
2021/07/10 03:11:27;;;;;;;12.00;8.15;;;17.10;85.00;;;;;;2074948;28;20030;-84
2021/07/10 03:12:28;;;;;;;9.65;7.30;;;17.10;85.00;;;;;;2072813;28;20030;-84
2021/07/10 03:13:28;;;;;;;11.20;7.97;;;17.10;85.00;;;;;;2073399;28;20025;-84
2021/07/10 03:14:29;;;;;;;12.75;8.45;;;17.10;85.00;;;;;;2069518;28;20488;-84
2021/07/10 03:15:30;;;;;;;12.18;8.07;;;17.00;85.00;;;;;;2056873;28;20464;-84
2021/07/10 03:16:30;;;;;;;11.10;8.07;;;17.00;85.00;;;;;;2054953;28;20513;-83
2021/07/10 03:17:31;;;;;;;11.00;7.78;;;17.00;85.10;;;;;;2063700;28;20489;-83
2021/07/10 03:18:32;;;;;;;11.38;7.88;;;17.00;85.20;;;;;;2072231;28;20038;-84
2021/07/10 03:19:32;;;;;;;11.52;7.88;;;17.10;85.30;;;;;;2089777;28;20087;-84
2021/07/10 03:20:33;;;;;;;11.02;8.05;;;17.00;85.30;;;;;;2072438;28;20030;-83
2021/07/10 03:21:34;;;;;;;10.55;8.15;;;17.00;85.20;;;;;;2061798;28;20398;-83
2021/07/10 03:22:35;;;;;;;11.10;7.85;;;17.00;85.20;;;;;;2056876;28;20465;-83
2021/07/10 03:23:37;;;;;;;10.00;7.57;;;17.00;85.30;;;;;;2071753;28;20022;-83
2021/07/10 03:24:37;;;;;;;11.73;8.10;;;17.00;85.30;;;;;;2065774;28;20097;-85
2021/07/10 03:25:38;;;;;;;11.30;7.72;;;17.00;85.30;;;;;;2058431;28;20023;-83
2021/07/10 03:26:39;;;;;;;10.15;7.43;;;17.10;85.30;;;;;;2073047;28;20084;-84
2021/07/10 03:27:42;;;;;;;12.23;8.90;;;17.00;85.20;;;;;;2076708;28;20133;-83
2021/07/10 03:28:42;;;;;;;11.65;8.35;;;17.00;85.20;;;;;;2073090;28;20022;-83
2021/07/10 03:29:43;;;;;;;11.23;7.95;;;17.00;85.30;;;;;;2072234;28;20465;-83
2021/07/10 03:30:48;;;;;;;11.60;8.35;;;17.00;85.30;;;;;;2063584;28;20481;-83
2021/07/10 03:31:48;;;;;;;11.35;7.55;;;17.00;85.30;;;;;;2044718;28;20027;-83
2021/07/10 03:32:49;;;;;;;10.45;7.70;;;17.00;85.40;;;;;;2040637;28;20046;-84
2021/07/10 03:33:50;;;;;;;10.07;7.88;;;17.00;85.40;;;;;;2059156;28;20029;-84
2021/07/10 03:34:51;;;;;;;10.55;7.82;;;17.00;85.40;;;;;;2055103;28;20529;-83
2021/07/10 03:35:52;;;;;;;10.98;7.82;;;17.00;86.10;;;;;;2074935;28;20531;-84
2021/07/10 03:36:52;;;;;;;10.90;7.78;;;17.00;85.50;;;;;;2077563;28;20037;-84
2021/07/10 03:37:54;;;;;;;10.63;7.90;;;17.00;85.50;;;;;;2072921;28;20057;-84
2021/07/10 03:38:55;;;;;;;11.10;7.75;;;17.00;85.50;;;;;;2081077;28;20026;-84
2021/07/10 03:39:56;;;;;;;12.30;7.53;;;17.00;86.10;;;;;;2072890;28;20065;-83
2021/07/10 03:40:57;;;;;;;12.23;7.90;;;17.00;85.50;;;;;;2062076;28;20035;-84
2021/07/10 03:41:57;;;;;;;11.45;8.05;;;17.00;85.40;;;;;;2055559;28;20591;-84
2021/07/10 03:42:58;;;;;;;10.55;8.13;;;17.00;85.50;;;;;;2072921;28;20072;-84
2021/07/10 03:44:00;;;;;;;10.82;7.72;;;17.00;85.50;;;;;;2084249;28;20021;-84
2021/07/10 03:45:00;;;;;;;13.25;8.07;;;17.00;85.60;;;;;;2081679;28;20041;-84
2021/07/10 03:46:02;;;;;;;11.45;7.85;;;16.90;85.60;;;;;;2064167;28;20026;-84
2021/07/10 03:47:03;;;;;;;12.15;8.05;;;16.90;85.60;;;;;;2067404;28;20036;-83
2021/07/10 03:48:05;;;;;;;11.30;8.27;;;17.00;85.60;;;;;;2081055;28;20500;-84
2021/07/10 03:49:05;;;;;;;11.00;8.40;;;17.00;85.60;;;;;;2064651;28;20023;-84
2021/07/10 03:50:08;;;;;;;10.98;7.97;;;16.90;86.20;;;;;;2064605;28;20085;-84
2021/07/10 03:51:09;;;;;;;12.15;8.35;;;17.00;85.60;;;;;;2066492;28;20065;-83
2021/07/10 03:52:10;;;;;;;11.63;7.78;;;17.00;85.60;;;;;;2068851;28;20034;-83
2021/07/10 03:53:12;;;;;;;12.30;8.65;;;17.00;85.60;;;;;;2072152;28;20037;-83
2021/07/10 03:54:12;;;;;;;12.52;8.02;;;17.00;85.60;;;;;;2066830;28;20065;-83
2021/07/10 03:55:14;;;;;;;12.55;8.20;;;17.00;85.60;;;;;;2074625;28;20085;-83
2021/07/10 03:56:16;;;;;;;12.27;7.95;;;17.00;85.60;;;;;;2064964;28;20030;-83
2021/07/10 03:57:17;;;;;;;11.65;8.15;;;17.00;85.60;;;;;;2055834;28;20138;-83
2021/07/10 03:58:18;;;;;;;11.00;7.90;;;17.00;85.60;;;;;;2065021;28;20033;-84
2021/07/10 03:59:19;;;;;;;11.65;8.27;;;17.00;85.60;;;;;;2063196;28;20022;-83
2021/07/10 04:00:21;;;;;;;11.98;8.40;;;17.00;85.60;;;;;;2056378;28;20077;-83
2021/07/10 04:01:22;;;;;;;11.27;8.32;;;17.10;85.60;;;;;;2061335;28;20033;-83
2021/07/10 04:02:23;;;;;;;11.43;8.18;;;17.10;85.60;;;;;;2064022;28;20145;-83
2021/07/10 04:03:23;;;;;;;11.15;8.05;;;17.10;85.60;;;;;;2074543;28;20164;-83
2021/07/10 04:04:24;;;;;;;11.73;8.20;;;17.10;85.70;;;;;;2078968;28;20500;-83
2021/07/10 04:05:25;;;;;;;10.88;8.07;;;17.10;85.60;;;;;;2098601;28;20021;-82
2021/07/10 04:06:26;;;;;;;11.70;7.95;;;17.10;85.60;;;;;;2070147;28;20037;-83
2021/07/10 04:07:26;;;;;;;12.02;8.35;;;17.10;85.60;;;;;;2058506;28;20076;-83
2021/07/10 04:08:27;;;;;;;11.50;8.15;;;17.20;85.60;;;;;;2072625;28;20033;-83
2021/07/10 04:09:28;;;;;;;11.23;8.07;;;17.20;85.60;;;;;;2078492;28;20048;-82
2021/07/10 04:10:29;;;;;;;11.90;7.22;;;17.20;85.60;;;;;;2073300;28;20064;-83
2021/07/10 04:11:29;;;;;;;11.68;7.95;;;17.20;85.60;;;;;;2082252;28;20026;-83
2021/07/10 04:12:30;;;;;;;12.68;8.50;;;17.20;85.50;;;;;;2088417;28;20107;-83
2021/07/10 04:13:31;;;;;;;12.40;8.13;;;17.30;85.50;;;;;;2073558;28;20025;-82
2021/07/10 04:14:31;;;;;;;11.95;8.00;;;17.30;85.40;;;;;;2057383;28;20551;-83
2021/07/10 04:15:32;;;;;;;11.55;8.32;;;17.30;85.50;;;;;;2076059;28;20084;-82
2021/07/10 04:16:33;;;;;;;11.23;7.90;;;17.30;85.40;;;;;;2068174;28;20121;-83
2021/07/10 04:17:33;;;;;;;10.25;7.55;;;17.40;85.40;;;;;;2074249;28;20506;-83
2021/07/10 04:18:34;;;;;;;11.48;8.07;;;17.40;85.30;;;;;;2070555;28;20084;-83
2021/07/10 04:19:35;;;;;;;11.05;8.07;;;17.40;85.30;;;;;;2066258;28;20177;-82
2021/07/10 04:20:35;;;;;;;11.55;8.10;;;17.40;85.30;;;;;;2058022;28;20023;-82
2021/07/10 04:21:36;;;;;;;12.35;8.40;;;17.50;85.30;;;;;;2056376;28;20462;-82
2021/07/10 04:22:38;;;;;;;10.68;7.95;;;17.50;85.30;;;;;;2064562;28;20512;-82
2021/07/10 04:23:38;;;;;;;11.48;8.43;;;17.50;85.30;;;;;;2076593;28;20113;-82
2021/07/10 04:24:39;;;;;;;10.88;7.88;;;17.50;85.30;;;;;;2065962;28;20381;-82
2021/07/10 04:25:40;;;;;;;11.45;8.18;;;17.50;85.20;;;;;;2058023;28;20062;-83
2021/07/10 04:26:40;;;;;;;10.63;7.80;;;17.50;85.20;;;;;;2059129;28;20031;-82
2021/07/10 04:27:44;;;;;;;11.52;8.23;;;17.50;85.20;;;;;;2076076;28;20482;-83
2021/07/10 04:28:44;;;;;;;10.98;7.70;;;17.50;85.20;;;;;;2079187;28;20034;-82
2021/07/10 04:29:48;;;;;;;10.65;7.50;;;17.50;85.20;;;;;;2068291;28;20345;-83
2021/07/10 04:30:49;;;;;;;10.77;7.55;;;17.50;85.30;;;;;;2058223;28;20122;-83
2021/07/10 04:31:50;;;;;;;11.15;7.55;;;17.60;85.40;;;;;;2056221;28;20027;-83
2021/07/10 04:32:51;;;;;;;10.48;7.32;;;17.60;85.30;;;;;;2066229;28;20511;-83
2021/07/10 04:33:52;;;;;;;9.77;7.45;;;17.60;85.30;;;;;;2082671;28;20532;-83
2021/07/10 04:34:53;;;;;;;9.95;7.50;;;17.60;85.80;;;;;;2067203;28;20042;-82
2021/07/10 04:35:54;;;;;;;11.65;7.93;;;17.70;85.80;;;;;;2057778;28;20061;-81
2021/07/10 04:36:54;;;;;;;10.38;7.53;;;17.70;85.20;;;;;;2056347;28;20472;-83
2021/07/10 04:37:55;;;;;;;10.55;7.45;;;17.70;85.20;;;;;;2075434;28;20057;-83
2021/07/10 04:38:56;;;;;;;10.30;7.57;;;17.70;85.20;;;;;;2066174;28;20030;-83
2021/07/10 04:39:56;;;;;;;10.02;7.30;;;17.70;85.20;;;;;;2052172;28;20058;-83
2021/07/10 04:40:58;;;;;;;10.43;7.57;;;17.70;85.20;;;;;;2057098;28;20030;-83
2021/07/10 04:41:59;;;;;;;11.27;7.55;;;17.70;85.20;;;;;;2065576;28;20034;-82
2021/07/10 04:43:00;;;;;;;10.27;7.28;;;17.70;85.80;;;;;;2074471;28;20101;-83
2021/07/10 04:44:01;;;;;;;10.30;7.13;;;17.80;85.20;;;;;;2066068;28;20428;-82
2021/07/10 04:45:03;;;;;;;9.88;7.45;;;17.80;85.20;;;;;;2066110;28;20023;-83
2021/07/10 04:46:04;;;;;;;11.23;7.60;;;17.80;85.10;;;;;;2057199;28;20043;-83
2021/07/10 04:47:05;;;;;;;11.18;7.35;;;17.80;85.10;;;;;;2060689;28;20041;-83
2021/07/10 04:48:07;;;;;;;10.32;7.35;;;17.90;85.00;;;;;;2058870;28;20042;-83
2021/07/10 04:49:07;;;;;;;10.48;7.68;;;17.90;84.90;;;;;;2058437;28;20089;-82
2021/07/10 04:50:12;;;;;;;10.20;7.25;;;17.90;84.90;;;;;;2071729;28;20443;-83
2021/07/10 04:51:13;;;;;;;10.77;7.82;;;17.90;84.90;;;;;;2079455;28;20037;-83
2021/07/10 04:52:13;;;;;;;11.57;7.82;;;18.00;84.90;;;;;;2074131;28;20062;-83
2021/07/10 04:53:15;;;;;;;10.73;7.47;;;18.00;84.80;;;;;;2071778;28;20026;-83
2021/07/10 04:54:15;;;;;;;10.40;7.65;;;18.00;84.80;;;;;;2065962;28;20149;-83
2021/07/10 04:55:17;;;;;;;10.77;7.47;;;18.10;84.70;;;;;;2058175;28;20038;-83
2021/07/10 04:56:17;;;;;;;10.55;7.45;;;18.10;84.70;;;;;;2059567;28;20479;-83
2021/07/10 04:57:18;;;;;;;10.02;7.28;;;18.20;84.60;;;;;;2073402;28;20030;-83
2021/07/10 04:58:19;;;;;;;11.05;7.88;;;18.20;84.60;;;;;;2073033;28;20041;-83
2021/07/10 04:59:20;;;;;;;10.48;7.50;;;18.30;85.10;;;;;;2070105;28;20022;-82
2021/07/10 05:00:23;;;;;;;9.60;7.18;;;18.30;84.50;;;;;;2065106;28;20030;-83
2021/07/10 05:01:23;;;;;;;10.88;7.50;;;18.30;84.40;;;;;;2081858;28;20029;-83
2021/07/10 05:02:24;;;;;;;11.02;7.32;;;18.40;84.40;;;;;;2065664;28;20027;-83
2021/07/10 05:03:25;;;;;;;11.75;7.20;;;18.40;84.30;;;;;;2070453;28;20046;-82
2021/07/10 05:04:25;;;;;;;10.00;7.45;;;18.50;84.20;;;;;;2060672;28;20469;-82
2021/07/10 05:05:26;;;;;;;10.15;6.85;;;18.50;84.70;;;;;;2050187;28;20027;-84
2021/07/10 05:06:27;;;;;;;10.63;7.15;;;18.50;84.00;;;;;;2075054;28;20034;-83
2021/07/10 05:07:27;;;;;;;9.43;7.20;;;18.60;84.00;;;;;;2074786;28;20492;-83
2021/07/10 05:08:28;;;;;;;9.52;6.95;;;18.70;83.90;;;;;;2070724;28;20029;-83
2021/07/10 05:09:29;;;;;;;10.25;7.47;;;18.70;83.80;;;;;;2068686;28;20023;-84
2021/07/10 05:10:30;;;;;;;9.88;7.38;;;18.80;84.30;;;;;;2056752;28;20078;-83
2021/07/10 05:11:31;;;;;;;10.57;7.72;;;18.80;83.60;;;;;;2049692;28;20036;-84
2021/07/10 05:12:32;;;;;;;10.60;7.18;;;18.80;83.40;;;;;;2057738;28;20040;-83
2021/07/10 05:13:32;;;;;;;11.35;6.90;;;18.90;83.30;;;;;;2064722;28;20061;-83
2021/07/10 05:14:33;;;;;;;9.98;7.22;;;18.90;83.20;;;;;;2062858;28;20405;-84
2021/07/10 05:15:34;;;;;;;9.48;7.10;;;19.00;83.20;;;;;;2065394;28;20509;-84
2021/07/10 05:16:34;;;;;;;11.00;7.57;;;19.00;83.10;;;;;;2054029;28;20034;-83